Time;durP1;ratioP1;P1;durP2;ratioP2;P2;SDS_P1;SDS_P2;PMS_P1;PMS_P2;Temp;Humidity;BMP_temperature;BMP_pressure;BME280_temperature;BME280_humidity;BME280_pressure;Samples;Min_cycle;Max_cycle;Signal;HPM_P1;HPM_P2
2023/08/12 00:01:10;;;;;;;3.70;1.10;;;;;;;15.75;67.49;100244.17;106700;1274;22602;-51
2023/08/12 00:03:39;;;;;;;3.40;1.60;;;;;;;15.70;67.42;100242.70;106739;1273;99905;-50
2023/08/12 00:06:21;;;;;;;3.60;1.00;;;;;;;15.63;67.30;100237.83;106775;1276;22530;-51
2023/08/12 00:08:49;;;;;;;2.10;1.30;;;;;;;15.52;67.26;100236.58;108720;1272;100161;-46
2023/08/12 00:11:31;;;;;;;4.90;2.10;;;;;;;15.39;67.38;100233.27;106720;1258;23464;-46
2023/08/12 00:14:00;;;;;;;2.30;1.20;;;;;;;15.28;67.22;100231.81;106775;1274;24868;-49
2023/08/12 00:16:30;;;;;;;2.90;1.10;;;;;;;15.17;67.15;100235.12;106300;1275;99823;-51
2023/08/12 00:18:59;;;;;;;4.10;1.90;;;;;;;15.07;67.42;100240.80;106761;1274;25249;-52
2023/08/12 00:21:27;;;;;;;3.60;1.20;;;;;;;14.97;67.55;100237.62;106876;1259;99439;-52
2023/08/12 00:23:59;;;;;;;7.20;1.90;;;;;;;14.88;67.63;100235.52;106862;1273;25240;-50
2023/08/12 00:26:28;;;;;;;6.00;1.40;;;;;;;14.79;67.70;100236.95;106627;1273;22550;-50
2023/08/12 00:28:57;;;;;;;6.00;1.40;;;;;;;14.70;67.82;100239.20;106576;1272;99251;-48
2023/08/12 00:31:25;;;;;;;6.10;1.00;;;;;;;14.62;68.00;100236.87;106954;1273;23882;-51
2023/08/12 00:34:00;;;;;;;5.10;1.40;;;;;;;14.52;68.05;100238.79;106401;1270;99424;-49
2023/08/12 00:36:29;;;;;;;3.90;1.60;;;;;;;14.40;68.09;100243.13;106709;1267;22556;-51
2023/08/12 00:39:18;;;;;;;3.10;1.30;;;;;;;14.21;68.15;100244.66;106315;1274;99572;-50
2023/08/12 00:41:47;;;;;;;1.70;0.80;;;;;;;14.05;68.28;100243.24;106380;1275;25413;-48
2023/08/12 00:44:16;;;;;;;2.00;0.80;;;;;;;13.99;68.25;100247.42;106267;1278;22533;-50
2023/08/12 00:46:44;;;;;;;2.90;1.30;;;;;;;13.96;68.29;100248.77;106747;1276;99594;-48
2023/08/12 00:49:27;;;;;;;4.40;1.40;;;;;;;13.93;68.31;100249.83;106553;1276;22271;-46
2023/08/12 00:52:01;;;;;;;3.10;1.20;;;;;;;13.89;68.35;100246.21;106636;1280;99458;-47
2023/08/12 00:54:29;;;;;;;3.30;1.00;;;;;;;13.83;68.50;100250.73;106166;1276;23368;-49
2023/08/12 00:56:58;;;;;;;1.80;0.90;;;;;;;13.78;68.53;100257.25;106796;1277;99833;-48
2023/08/12 01:00:05;;;;;;;2.80;0.90;;;;;;;13.73;68.56;100251.58;106318;1277;24297;-47
2023/08/12 01:02:34;;;;;;;;;;;;;;;13.68;68.68;100253.76;106535;1275;25764;-48
2023/08/12 01:05:32;;;;;;;1.90;1.00;;;;;;;13.61;68.74;100249.17;106286;1276;22522;-47
2023/08/12 01:08:01;;;;;;;4.50;1.20;;;;;;;13.55;68.81;100246.02;106363;1276;25370;-50
2023/08/12 01:10:45;;;;;;;1.90;1.20;;;;;;;13.48;68.89;100239.38;106187;1276;99628;-50
2023/08/12 01:13:46;;;;;;;2.40;1.00;;;;;;;13.43;69.05;100240.33;106564;1273;22540;-47
2023/08/12 01:16:18;;;;;;;2.10;1.00;;;;;;;13.38;69.17;100234.84;106522;1273;99907;-51
2023/08/12 01:18:49;;;;;;;3.30;1.10;;;;;;;13.33;69.21;100229.65;106810;1273;24240;-49
2023/08/12 01:21:22;;;;;;;2.20;1.00;;;;;;;13.29;69.26;100232.33;106474;1273;100828;-49
2023/08/12 01:23:53;;;;;;;1.90;1.20;;;;;;;13.24;69.37;100233.92;106420;1273;22586;-50
2023/08/12 01:26:24;;;;;;;2.80;1.10;;;;;;;13.18;69.52;100228.61;106434;1278;22536;-49
2023/08/12 01:29:00;;;;;;;7.10;1.30;;;;;;;13.11;69.56;100227.23;106422;1274;99446;-50
2023/08/12 01:31:48;;;;;;;3.00;1.10;;;;;;;13.05;69.63;100229.30;106557;1273;24212;-51
2023/08/12 01:34:40;;;;;;;4.40;1.10;;;;;;;12.98;69.57;100226.80;106554;1273;100140;-49
2023/08/12 01:37:12;;;;;;;2.70;1.20;;;;;;;12.89;69.72;100224.49;106431;1274;24283;-49
2023/08/12 01:39:43;;;;;;;2.20;0.80;;;;;;;12.81;69.91;100231.34;106492;1273;100248;-50
2023/08/12 01:42:12;;;;;;;1.50;0.80;;;;;;;12.75;69.81;100229.35;106377;1274;22524;-50
2023/08/12 01:44:45;;;;;;;4.50;1.00;;;;;;;12.69;69.82;100231.52;106555;1273;25286;-49
2023/08/12 01:47:19;;;;;;;1.80;1.00;;;;;;;12.64;70.09;100232.81;106603;1273;99258;-48
2023/08/12 01:49:48;;;;;;;2.90;0.90;;;;;;;12.60;70.19;100235.13;106693;1272;25291;-53
2023/08/12 01:52:17;;;;;;;5.10;1.20;;;;;;;12.56;70.32;100233.21;106533;1273;99693;-50
2023/08/12 01:54:46;;;;;;;2.90;0.80;;;;;;;12.53;70.48;100228.96;106600;1273;25360;-49
2023/08/12 01:57:15;;;;;;;2.50;1.10;;;;;;;12.51;70.62;100232.41;106557;1272;100193;-46
2023/08/12 01:59:44;;;;;;;4.10;1.30;;;;;;;12.48;70.74;100229.58;106889;1273;25406;-49
2023/08/12 02:02:16;;;;;;;3.70;1.30;;;;;;;12.46;70.71;100223.38;106481;1274;22529;-49
2023/08/12 02:04:55;;;;;;;2.70;0.90;;;;;;;12.44;70.83;100224.88;106540;1274;99478;-48
2023/08/12 02:07:43;;;;;;;4.50;1.00;;;;;;;12.41;70.81;100230.41;106590;1272;25293;-49
2023/08/12 02:10:17;;;;;;;1.60;0.80;;;;;;;12.38;70.99;100228.14;106607;1273;99426;-48
2023/08/12 02:12:49;;;;;;;1.60;1.10;;;;;;;12.36;71.00;100229.29;106599;1273;24515;-49
2023/08/12 02:15:17;;;;;;;1.90;1.40;;;;;;;12.31;71.07;100230.73;106436;1273;99613;-51
2023/08/12 02:17:49;;;;;;;1.90;0.90;;;;;;;12.26;71.05;100231.11;106619;1273;25329;-49
2023/08/12 02:20:18;;;;;;;3.70;1.20;;;;;;;12.20;70.94;100227.90;106623;1272;22529;-50
2023/08/12 02:22:49;;;;;;;2.40;1.00;;;;;;;12.16;71.17;100224.27;106422;1273;100213;-48
2023/08/12 02:25:20;;;;;;;3.50;0.90;;;;;;;12.14;71.33;100223.64;106304;1275;22805;-50
2023/08/12 02:27:49;;;;;;;2.90;1.20;;;;;;;12.12;71.53;100223.20;106459;1274;99719;-52
2023/08/12 02:30:18;;;;;;;2.60;1.00;;;;;;;12.11;71.51;100218.20;106795;1273;22539;-49
2023/08/12 02:32:55;;;;;;;2.30;1.10;;;;;;;12.10;71.69;100221.20;106484;1273;25413;-48
2023/08/12 02:35:24;;;;;;;2.90;1.00;;;;;;;12.10;71.61;100221.55;106633;1274;23042;-48
2023/08/12 02:37:55;;;;;;;4.10;1.40;;;;;;;12.10;71.82;100220.86;106612;1273;22535;-48
2023/08/12 02:40:24;;;;;;;1.50;0.80;;;;;;;12.09;71.97;100224.37;106373;1272;99571;-51
2023/08/12 02:42:53;;;;;;;4.70;1.10;;;;;;;12.08;71.92;100221.63;106533;1266;24877;-47
2023/08/12 02:45:22;;;;;;;1.80;0.90;;;;;;;12.07;72.02;100224.30;106340;1273;99685;-48
2023/08/12 02:48:11;;;;;;;1.90;1.10;;;;;;;12.06;72.04;100226.26;106574;1273;25407;-45
2023/08/12 02:50:40;;;;;;;2.30;0.90;;;;;;;12.03;72.17;100231.65;106457;1273;24480;-48
2023/08/12 02:53:12;;;;;;;1.80;0.90;;;;;;;12.00;72.17;100232.66;106481;1272;99380;-50
2023/08/12 02:55:45;;;;;;;2.80;0.90;;;;;;;11.98;72.17;100231.34;106627;1273;22541;-50
2023/08/12 02:58:24;;;;;;;2.30;0.90;;;;;;;11.96;72.19;100232.83;106524;1273;99470;-52
2023/08/12 03:00:56;;;;;;;2.60;1.20;;;;;;;11.95;72.27;100226.81;106624;1257;24546;-49
2023/08/12 03:03:28;;;;;;;1.70;0.70;;;;;;;11.93;72.37;100224.61;106598;1272;99627;-46
2023/08/12 03:06:01;;;;;;;2.90;0.80;;;;;;;11.92;72.11;100224.81;106462;1273;22530;-47
2023/08/12 03:08:48;;;;;;;1.70;0.80;;;;;;;11.89;72.06;100225.83;106694;1273;24265;-47
2023/08/12 03:11:24;;;;;;;;;;;;;;;11.86;72.11;100229.62;106572;1273;99373;-51
2023/08/12 03:14:03;;;;;;;1.40;0.60;;;;;;;11.82;72.42;100230.65;106532;1273;22548;-49
2023/08/12 03:16:32;;;;;;;2.50;0.90;;;;;;;11.80;72.53;100228.95;106724;1273;99462;-48
2023/08/12 03:19:07;;;;;;;2.10;1.00;;;;;;;11.80;72.68;100231.77;106776;1272;23156;-51
2023/08/12 03:21:36;;;;;;;1.30;0.80;;;;;;;11.78;72.79;100227.82;106635;1273;100132;-51
2023/08/12 03:24:10;;;;;;;1.90;0.70;;;;;;;11.80;72.87;100224.28;106297;1274;24841;-49
2023/08/12 03:26:44;;;;;;;5.80;1.40;;;;;;;11.80;72.85;100224.95;106501;1273;22591;-46
2023/08/12 03:29:13;;;;;;;5.00;1.30;;;;;;;11.82;72.95;100225.21;106503;1272;99584;-49
2023/08/12 03:31:48;;;;;;;3.80;0.70;;;;;;;11.82;73.00;100223.98;106662;1272;25359;-50
2023/08/12 03:34:27;;;;;;;1.90;1.10;;;;;;;11.83;73.07;100221.48;106466;1274;99478;-46
2023/08/12 03:36:59;;;;;;;2.20;0.80;;;;;;;11.83;73.00;100220.80;106550;1268;23707;-47
2023/08/12 03:39:30;;;;;;;2.70;1.00;;;;;;;11.82;72.97;100221.19;106343;1273;99776;-49
2023/08/12 03:41:58;;;;;;;4.40;0.80;;;;;;;11.81;72.94;100223.70;106701;1272;22902;-51
2023/08/12 03:44:30;;;;;;;1.80;0.80;;;;;;;11.79;73.04;100225.20;106676;1272;24328;-49
2023/08/12 03:46:58;;;;;;;1.20;0.60;;;;;;;11.76;73.15;100224.24;106577;1272;99405;-51
2023/08/12 03:49:28;;;;;;;2.30;0.80;;;;;;;11.77;73.20;100227.16;106573;1272;22533;-49
2023/08/12 03:51:57;;;;;;;2.50;1.50;;;;;;;11.79;73.28;100223.41;107501;1272;99400;-47
2023/08/12 03:54:26;;;;;;;1.40;0.60;;;;;;;11.81;73.35;100222.45;107385;1273;22539;-47
2023/08/12 03:56:55;;;;;;;4.00;1.20;;;;;;;11.81;73.25;100223.84;106587;1273;24253;-51
2023/08/12 03:59:24;;;;;;;1.70;1.10;;;;;;;11.80;73.31;100224.80;107007;1270;99396;-50
2023/08/12 04:01:52;;;;;;;1.10;0.70;;;;;;;11.81;73.33;100228.23;110147;1272;23122;-50
2023/08/12 04:04:21;;;;;;;3.20;0.60;;;;;;;11.83;73.41;100227.27;108729;1273;99261;-48
2023/08/12 04:06:52;;;;;;;4.70;1.10;;;;;;;11.87;73.57;100229.55;110175;1272;22734;-49
2023/08/12 04:09:21;;;;;;;1.70;0.90;;;;;;;11.94;73.61;100228.05;109385;1272;100165;-49
2023/08/12 04:11:50;;;;;;;3.80;0.80;;;;;;;12.02;73.77;100226.09;106951;1272;22543;-51
2023/08/12 04:14:25;;;;;;;1.30;0.60;;;;;;;12.13;73.90;100221.79;106479;1272;22544;-51
2023/08/12 04:16:54;;;;;;;1.30;0.80;;;;;;;12.24;73.91;100220.73;106471;1272;99710;-46
2023/08/12 04:19:24;;;;;;;1.80;0.80;;;;;;;12.35;73.93;100222.35;106493;1274;25270;-44
2023/08/12 04:21:56;;;;;;;2.20;0.90;;;;;;;12.47;74.00;100213.58;106676;1272;99443;-46
2023/08/12 04:24:25;;;;;;;1.30;0.80;;;;;;;12.59;74.00;100210.89;106859;1272;22622;-48
2023/08/12 04:26:54;;;;;;;1.70;1.10;;;;;;;12.74;74.12;100215.25;106428;1272;22501;-49
2023/08/12 04:29:25;;;;;;;3.50;0.90;;;;;;;12.89;74.02;100211.76;106808;1272;99870;-46
2023/08/12 04:31:57;;;;;;;1.90;0.80;;;;;;;13.01;74.15;100206.39;106619;1274;25348;-46
2023/08/12 04:34:29;;;;;;;3.00;1.00;;;;;;;13.15;74.45;100201.30;106380;1273;100459;-46
2023/08/12 04:37:13;;;;;;;2.00;1.20;;;;;;;13.31;74.31;100204.07;106612;1267;24298;-47
2023/08/12 04:39:45;;;;;;;3.10;0.90;;;;;;;13.47;74.26;100204.14;106604;1272;99661;-47
2023/08/12 04:42:14;;;;;;;3.00;1.20;;;;;;;13.69;74.44;100206.85;106533;1272;23303;-46
2023/08/12 04:44:43;;;;;;;2.50;1.20;;;;;;;13.92;74.32;100207.55;106504;1272;25425;-46
2023/08/12 04:47:15;;;;;;;1.60;0.90;;;;;;;14.14;74.40;100199.70;106624;1272;99510;-50
2023/08/12 04:49:46;;;;;;;4.20;1.40;;;;;;;14.33;74.28;100195.83;106454;1272;22536;-50
2023/08/12 04:52:15;;;;;;;1.90;1.00;;;;;;;14.52;74.34;100200.23;106568;1267;99422;-51
2023/08/12 04:54:47;;;;;;;6.20;1.10;;;;;;;14.70;74.33;100200.14;106849;1272;22533;-46
2023/08/12 04:57:16;;;;;;;3.10;1.20;;;;;;;14.86;74.19;100196.02;106580;1272;99566;-51
2023/08/12 04:59:48;;;;;;;3.00;1.30;;;;;;;15.03;74.00;100192.97;106520;1268;26786;-49
2023/08/12 05:02:18;;;;;;;4.00;1.30;;;;;;;15.21;73.88;100191.08;106867;1272;22747;-51
2023/08/12 05:04:51;;;;;;;5.30;1.10;;;;;;;15.38;73.86;100192.66;106468;1272;99439;-51
2023/08/12 05:07:20;;;;;;;2.10;1.40;;;;;;;15.57;74.02;100190.84;106483;1272;22537;-48
2023/08/12 05:09:49;;;;;;;4.10;1.20;;;;;;;15.77;74.21;100195.96;106383;1274;99498;-51
2023/08/12 05:12:20;;;;;;;3.50;1.20;;;;;;;15.95;74.25;100197.33;106605;1272;22530;-53
2023/08/12 05:14:50;;;;;;;2.70;1.30;;;;;;;16.13;74.14;100196.69;106472;1272;25334;-51
2023/08/12 05:17:19;;;;;;;2.40;1.60;;;;;;;16.32;74.00;100194.11;106459;1272;99252;-51
2023/08/12 05:19:50;;;;;;;5.90;1.20;;;;;;;16.48;73.60;100192.89;106678;1272;24277;-46
2023/08/12 05:22:19;;;;;;;1.80;0.60;;;;;;;16.63;73.42;100187.39;106838;1272;99443;-49
2023/08/12 05:24:48;;;;;;;3.50;1.10;;;;;;;16.73;73.28;100183.02;106317;1273;22530;-49
2023/08/12 05:27:18;;;;;;;2.00;0.90;;;;;;;16.79;73.16;100182.13;106533;1272;100110;-47
2023/08/12 05:29:47;;;;;;;4.20;0.80;;;;;;;16.84;72.96;100183.05;106654;1274;25333;-49
2023/08/12 05:32:45;;;;;;;1.60;0.70;;;;;;;16.83;72.67;100177.13;106739;1272;26329;-50
2023/08/12 05:35:13;;;;;;;2.40;0.80;;;;;;;16.82;72.47;100178.08;106260;1272;99445;-50
2023/08/12 05:37:42;;;;;;;1.90;0.50;;;;;;;16.78;72.28;100180.61;106570;1274;22652;-52
2023/08/12 05:40:30;;;;;;;3.70;0.90;;;;;;;16.75;72.16;100176.77;106637;1271;99381;-47
2023/08/12 05:42:58;;;;;;;1.30;0.90;;;;;;;16.73;71.99;100174.23;106421;1272;22533;-49
2023/08/12 05:45:27;;;;;;;1.60;0.90;;;;;;;16.74;72.00;100173.11;106414;1272;99614;-48
2023/08/12 05:47:56;;;;;;;1.90;1.00;;;;;;;16.80;71.87;100170.63;106831;1272;24251;-52
2023/08/12 05:50:25;;;;;;;2.40;0.70;;;;;;;16.87;71.76;100168.61;106679;1272;24292;-47
2023/08/12 05:52:54;;;;;;;2.50;0.80;;;;;;;16.98;71.70;100170.31;106647;1267;99793;-47
2023/08/12 05:55:46;;;;;;;1.70;0.60;;;;;;;17.17;71.68;100171.17;106831;1272;22585;-47
2023/08/12 05:59:13;;;;;;;1.20;0.50;;;;;;;17.43;71.60;100155.48;107013;1261;99464;-48
2023/08/12 06:01:42;;;;;;;1.50;0.80;;;;;;;17.66;71.44;100154.23;106799;1272;22523;-45
2023/08/12 06:04:15;;;;;;;2.00;0.90;;;;;;;17.90;71.37;100153.10;106138;1275;423278;-50
2023/08/12 06:06:43;;;;;;;5.10;0.90;;;;;;;18.15;71.25;100144.62;106502;1272;25305;-49
2023/08/12 06:09:16;;;;;;;2.70;0.90;;;;;;;18.37;70.77;100143.42;106433;1272;99658;-46
2023/08/12 06:11:45;;;;;;;2.20;0.60;;;;;;;18.58;70.44;100148.38;106924;1272;25359;-47
2023/08/12 06:14:16;;;;;;;1.80;0.70;;;;;;;18.77;70.25;100137.45;106469;1272;22519;-46
2023/08/12 06:16:45;;;;;;;1.70;0.70;;;;;;;18.97;70.16;100134.52;106662;1272;99429;-48
2023/08/12 06:19:22;;;;;;;1.90;0.90;;;;;;;19.18;69.82;100131.91;106733;1272;25352;-59
2023/08/12 06:21:52;;;;;;;1.30;0.80;;;;;;;19.40;69.53;100128.95;106451;1272;99997;-60
2023/08/12 06:24:20;;;;;;;2.10;0.80;;;;;;;19.59;69.38;100132.77;106484;1272;22528;-62
2023/08/12 06:26:49;;;;;;;5.30;1.40;;;;;;;19.82;69.02;100129.79;106527;1272;22531;-61
2023/08/12 06:29:18;;;;;;;1.50;0.60;;;;;;;20.07;68.89;100128.46;106320;1273;99502;-63
2023/08/12 06:31:47;;;;;;;1.90;1.00;;;;;;;20.37;68.49;100127.45;106480;1272;25355;-60
2023/08/12 06:34:16;;;;;;;2.50;0.70;;;;;;;20.62;68.13;100123.66;106470;1272;99405;-58
2023/08/12 06:36:45;;;;;;;2.30;0.90;;;;;;;20.92;67.95;100120.48;106536;1272;22524;-58
2023/08/12 06:39:14;;;;;;;1.70;1.20;;;;;;;21.22;67.56;100113.50;106444;1272;100200;-53
2023/08/12 06:41:47;;;;;;;1.40;0.90;;;;;;;21.55;67.39;100116.66;106626;1272;22782;-52
2023/08/12 06:44:15;;;;;;;2.20;1.20;;;;;;;21.80;66.46;100119.16;106577;1272;24068;-56
2023/08/12 06:46:44;;;;;;;4.90;0.90;;;;;;;22.09;66.06;100115.48;106490;1274;100520;-54
2023/08/12 06:49:13;;;;;;;1.70;0.80;;;;;;;22.44;65.88;100124.61;106555;1275;25416;-49
2023/08/12 06:51:42;;;;;;;2.40;1.10;;;;;;;22.79;65.65;100125.33;106739;1263;100421;-49
2023/08/12 06:54:12;;;;;;;1.10;0.50;;;;;;;23.19;65.32;100126.29;106532;1272;22527;-54
2023/08/12 06:56:41;;;;;;;2.90;1.10;;;;;;;23.64;65.21;100128.80;106314;1272;24481;-62
2023/08/12 06:59:11;;;;;;;2.00;0.80;;;;;;;24.16;64.55;100127.67;106280;1272;99413;-60
2023/08/12 07:01:40;;;;;;;1.20;0.60;;;;;;;24.85;63.84;100129.72;106509;1272;24062;-59
2023/08/12 07:04:10;;;;;;;1.60;0.80;;;;;;;25.40;63.22;100127.33;106386;1271;99436;-61
2023/08/12 07:06:41;;;;;;;5.00;1.10;;;;;;;25.81;62.77;100132.05;106336;1272;22526;-60
2023/08/12 07:09:12;;;;;;;2.60;1.00;;;;;;;26.06;62.13;100124.10;106351;1271;99630;-63
2023/08/12 07:11:41;;;;;;;2.90;0.70;;;;;;;26.28;61.56;100126.16;106487;1272;24209;-62
2023/08/12 07:14:10;;;;;;;5.50;1.10;;;;;;;26.24;60.68;100124.28;106323;1272;28238;-63
2023/08/12 07:16:42;;;;;;;1.80;0.70;;;;;;;26.11;59.69;100115.14;106359;1274;99487;-59
2023/08/12 07:19:12;;;;;;;4.40;0.70;;;;;;;26.28;59.32;100115.28;106438;1272;25448;-60
2023/08/12 07:21:51;;;;;;;1.10;0.70;;;;;;;26.69;58.90;100109.16;106242;1272;99597;-62
2023/08/12 07:24:21;;;;;;;1.50;0.70;;;;;;;27.10;58.32;100104.77;106654;1272;24206;-59
2023/08/12 07:26:50;;;;;;;1.20;0.50;;;;;;;27.44;57.81;100104.55;106516;1272;25465;-60
2023/08/12 07:29:19;;;;;;;1.00;0.50;;;;;;;27.74;56.96;100110.32;106375;1272;101728;-60
2023/08/12 07:31:48;;;;;;;1.50;1.00;;;;;;;27.87;56.53;100112.84;106497;1272;23914;-59
2023/08/12 07:34:17;;;;;;;3.10;1.10;;;;;;;27.96;55.71;100110.70;106543;1272;99976;-60
2023/08/12 07:36:48;;;;;;;2.30;0.70;;;;;;;28.21;55.30;100112.64;106374;1272;22530;-63
2023/08/12 07:39:18;;;;;;;2.20;1.10;;;;;;;28.53;54.74;100118.26;106463;1271;99695;-63
2023/08/12 07:41:49;;;;;;;2.60;1.00;;;;;;;28.94;54.38;100121.30;106459;1272;22570;-61
2023/08/12 07:44:18;;;;;;;2.50;1.10;;;;;;;29.16;53.49;100127.64;106652;1272;24266;-62
2023/08/12 07:46:47;;;;;;;2.10;1.00;;;;;;;29.36;53.03;100121.19;106413;1272;99446;-64
2023/08/12 07:49:16;;;;;;;1.30;0.70;;;;;;;29.55;52.52;100119.27;106521;1272;25230;-61
2023/08/12 07:51:46;;;;;;;2.10;0.80;;;;;;;29.79;51.91;100118.36;106362;1272;100328;-59
2023/08/12 07:54:15;;;;;;;2.90;1.30;;;;;;;29.98;51.48;100118.30;106578;1273;25561;-61
2023/08/12 07:56:44;;;;;;;2.10;0.90;;;;;;;30.02;50.89;100116.74;106693;1272;22540;-62
2023/08/12 07:59:48;;;;;;;1.70;0.70;;;;;;;30.26;50.28;100117.90;106790;1272;99451;-59
2023/08/12 08:02:18;;;;;;;1.10;0.70;;;;;;;30.61;50.01;100117.71;106222;1280;22541;-56
2023/08/12 08:04:49;;;;;;;1.80;0.70;;;;;;;31.40;49.81;100114.77;105792;1280;99926;-61
2023/08/12 08:07:21;;;;;;;1.70;0.70;;;;;;;32.71;49.45;100115.05;105800;1282;22588;-66
2023/08/12 08:09:53;;;;;;;2.00;0.70;;;;;;;33.94;48.29;100115.16;105542;1284;100269;-61
2023/08/12 08:12:22;;;;;;;1.70;0.60;;;;;;;34.39;47.57;100109.63;106166;1280;25458;-61
2023/08/12 08:14:51;;;;;;;1.40;0.50;;;;;;;34.71;46.69;100107.94;106071;1280;22847;-63
2023/08/12 08:17:20;;;;;;;1.40;0.80;;;;;;;35.68;46.48;100104.91;105967;1280;99445;-63
2023/08/12 08:19:49;;;;;;;1.10;0.60;;;;;;;36.37;45.33;100099.77;105942;1277;24418;-62
2023/08/12 08:22:18;;;;;;;2.70;0.90;;;;;;;36.52;44.01;100103.53;106020;1280;99458;-58
2023/08/12 08:24:47;;;;;;;1.10;0.90;;;;;;;36.63;43.25;100098.10;106227;1280;22619;-69
2023/08/12 08:27:16;;;;;;;1.30;0.80;;;;;;;36.43;41.87;100091.70;105883;1276;99635;-59
2023/08/12 08:29:45;;;;;;;1.20;0.70;;;;;;;37.22;41.73;100096.88;107170;1280;22564;-63
2023/08/12 08:32:16;;;;;;;2.00;0.80;;;;;;;37.84;40.47;100096.39;105915;1279;22540;-64
2023/08/12 08:34:46;;;;;;;28.00;1.70;;;;;;;37.98;39.54;100097.41;105707;1281;99840;-63
2023/08/12 08:37:15;;;;;;;3.30;0.80;;;;;;;38.57;39.82;100095.10;106026;1280;24322;-61
2023/08/12 08:39:44;;;;;;;1.10;0.80;;;;;;;39.53;38.29;100093.11;107451;1272;99607;-62
2023/08/12 08:42:18;;;;;;;2.20;0.80;;;;;;;39.78;37.36;100093.09;106691;1272;22535;-59
2023/08/12 08:44:55;;;;;;;2.30;0.70;;;;;;;40.38;36.30;100093.52;106488;1272;22529;-58
2023/08/12 08:47:27;;;;;;;2.20;0.70;;;;;;;40.20;34.94;100092.30;106658;1272;99214;-61
2023/08/12 08:49:57;;;;;;;2.00;0.70;;;;;;;40.74;34.94;100089.84;106641;1272;22527;-62
2023/08/12 08:52:26;;;;;;;1.80;0.80;;;;;;;42.37;34.18;100085.48;106481;1272;99945;-61
2023/08/12 08:54:56;;;;;;;0.90;0.50;;;;;;;43.47;33.09;100079.29;106623;1272;24237;-62
2023/08/12 08:57:35;;;;;;;1.50;0.90;;;;;;;43.94;32.25;100074.86;106410;1258;100347;-63
2023/08/12 09:00:17;;;;;;;2.00;0.60;;;;;;;44.67;31.53;100075.99;106397;1272;25483;-62
2023/08/12 09:02:50;;;;;;;3.00;1.00;;;;;;;45.34;30.94;100077.70;106584;1272;25237;-62
2023/08/12 09:05:42;;;;;;;;;;;;;;;;;;;;;
2023/08/12 09:08:13;;;;;;;2.00;0.90;;;;;;;47.08;29.12;100075.86;106432;1274;25346;-61
2023/08/12 09:10:44;;;;;;;1.00;0.70;;;;;;;46.60;27.77;100072.70;106425;1272;99559;-61
2023/08/12 09:13:14;;;;;;;1.60;1.10;;;;;;;46.86;27.45;100072.51;106478;1272;23130;-60
2023/08/12 09:15:44;;;;;;;2.40;1.30;;;;;;;47.82;26.39;100066.41;106449;1272;99711;-63
2023/08/12 09:18:13;;;;;;;1.40;1.00;;;;;;;48.19;25.56;100063.66;106544;1272;25367;-60
2023/08/12 09:20:44;;;;;;;1.90;1.60;;;;;;;49.09;24.86;100064.65;106437;1271;24226;-60
2023/08/12 09:23:15;;;;;;;3.10;1.50;;;;;;;50.79;24.74;100062.98;106297;1272;99567;-59
2023/08/12 09:25:46;;;;;;;3.40;2.60;;;;;;;51.52;23.19;100062.46;107534;1272;23890;-61
2023/08/12 09:28:18;;;;;;;2.40;2.30;;;;;;;52.47;22.85;100063.61;106382;1272;99495;-59
2023/08/12 09:30:52;;;;;;;4.70;4.20;;;;;;;53.22;21.89;100062.52;107936;1272;24388;-60
2023/08/12 09:33:38;;;;;;;4.00;3.80;;;;;;;53.52;20.69;100061.06;106405;1272;99707;-60
2023/08/12 09:36:08;;;;;;;5.20;4.80;;;;;;;53.92;20.05;100053.23;106525;1271;24205;-59
2023/08/12 09:38:36;;;;;;;5.80;5.30;;;;;;;54.68;19.59;100051.65;106688;1265;24214;-60
2023/08/12 09:41:05;;;;;;;7.10;6.60;;;;;;;55.71;19.36;100058.39;106459;1272;99700;-61
2023/08/12 09:43:34;;;;;;;8.00;7.60;;;;;;;56.27;18.53;100056.45;107203;1272;22872;-60
2023/08/12 09:46:03;;;;;;;10.60;10.00;;;;;;;56.41;17.81;100055.34;106570;1272;99562;-59
2023/08/12 09:48:32;;;;;;;11.00;10.40;;;;;;;56.05;17.00;100055.55;106438;1272;22579;-60
2023/08/12 09:51:02;;;;;;;12.90;12.00;;;;;;;55.90;16.55;100051.27;106428;1272;24420;-59
2023/08/12 09:53:32;;;;;;;14.00;13.20;;;;;;;56.58;16.46;100052.35;110071;1272;99582;-59
2023/08/12 09:56:10;;;;;;;15.10;14.30;;;;;;;57.07;15.90;100049.78;110275;1272;22143;-60
2023/08/12 09:58:43;;;;;;;18.20;17.00;;;;;;;57.36;15.61;100045.38;110070;1272;100039;-59
2023/08/12 10:01:13;;;;;;;20.40;19.10;;;;;;;57.62;15.01;100045.87;110106;1272;22130;-59
2023/08/12 10:03:45;;;;;;;20.10;19.00;;;;;;;57.28;14.46;100042.69;110049;1271;100063;-60
2023/08/12 10:06:14;;;;;;;;;;;;;;;57.13;14.24;100041.20;109116;1272;22502;-62
2023/08/12 10:08:46;;;;;;;24.90;23.60;;;;;;;57.22;14.06;100041.09;106503;1272;24359;-60
2023/08/12 10:11:15;;;;;;;25.20;23.80;;;;;;;57.64;14.12;100037.71;106257;1272;100406;-59
2023/08/12 10:13:45;;;;;;;25.90;24.50;;;;;;;57.69;13.64;100031.52;106382;1272;22547;-60
2023/08/12 10:16:14;;;;;;;27.40;25.90;;;;;;;57.88;13.61;100031.00;106632;1267;99919;-60
2023/08/12 10:18:47;;;;;;;27.40;25.90;;;;;;;57.76;12.98;100024.59;106522;1272;22557;-59
2023/08/12 10:21:17;;;;;;;;;;;;;;;56.91;12.96;100022.44;106679;1272;99908;-59
2023/08/12 10:23:47;;;;;;;32.30;30.50;;;;;;;56.98;13.00;100021.11;106944;1272;22620;-60
2023/08/12 10:26:17;;;;;;;32.30;30.40;;;;;;;56.95;12.79;100019.45;106686;1272;24394;-60
2023/08/12 10:28:46;;;;;;;35.60;33.60;;;;;;;57.37;13.18;100021.08;106564;1272;100204;-59
2023/08/12 10:31:19;;;;;;;37.30;35.30;;;;;;;58.35;13.01;100020.77;106480;1272;23009;-60
2023/08/12 10:33:49;;;;;;;41.40;39.00;;;;;;;58.82;12.47;100014.55;106293;1272;100492;-62
2023/08/12 10:36:19;;;;;;;42.90;40.60;;;;;;;58.05;12.43;100007.90;106443;1272;24571;-60
2023/08/12 10:38:48;;;;;;;44.60;42.10;;;;;;;58.40;12.44;100004.52;106621;1272;24154;-58
2023/08/12 10:41:21;;;;;;;46.40;43.90;;;;;;;58.73;12.35;100001.97;106584;1265;99770;-59
2023/08/12 10:44:01;;;;;;;48.20;45.60;;;;;;;58.59;11.62;100002.42;106435;1272;22533;-59
2023/08/12 10:46:33;;;;;;;47.00;44.50;;;;;;;57.67;11.25;99998.19;106284;1272;100415;-59
2023/08/12 10:49:07;;;;;;;46.20;43.80;;;;;;;58.44;11.50;99996.20;106409;1275;24227;-59
2023/08/12 10:51:51;;;;;;;46.50;44.00;;;;;;;59.79;11.81;100001.14;106474;1273;100595;-59
2023/08/12 10:54:30;;;;;;;48.40;45.70;;;;;;;60.99;11.52;99997.47;109659;1272;25463;-61
2023/08/12 10:57:03;;;;;;;48.50;45.70;;;;;;;60.44;10.98;99995.16;106576;1272;23910;-60
2023/08/12 10:59:45;;;;;;;47.20;44.60;;;;;;;59.17;11.40;99993.46;106723;1271;24242;-57
2023/08/12 11:02:26;;;;;;;50.20;47.50;;;;;;;60.24;11.52;99990.80;106599;1272;22526;-57
2023/08/12 11:05:01;;;;;;;;;;;;;;;61.01;11.19;99989.58;106477;1272;99570;-58
2023/08/12 11:07:46;;;;;;;56.20;53.10;;;;;;;60.21;10.39;99983.48;106417;1272;22694;-58
2023/08/12 11:10:18;;;;;;;57.40;54.00;;;;;;;59.70;10.30;99981.80;106461;1272;99742;-57
2023/08/12 11:12:56;;;;;;;59.70;56.50;;;;;;;58.86;10.14;99977.05;106468;1272;22526;-59
2023/08/12 11:15:41;;;;;;;53.20;50.30;;;;;;;58.00;9.80;99973.56;106293;1272;99889;-58
2023/08/12 11:18:16;;;;;;;53.10;50.20;;;;;;;57.44;10.17;99968.08;106377;1272;22683;-60
2023/08/12 11:20:47;;;;;;;50.10;47.40;;;;;;;58.16;10.28;99972.34;106554;1272;25594;-59
2023/08/12 11:23:17;;;;;;;49.80;47.10;;;;;;;58.85;10.54;99972.70;106499;1272;99733;-58
2023/08/12 11:25:45;;;;;;;49.70;47.00;;;;;;;59.16;10.61;99976.31;106499;1272;22750;-59
2023/08/12 11:28:14;;;;;;;54.70;51.70;;;;;;;58.99;10.49;99967.73;106513;1273;100347;-58
2023/08/12 11:30:45;;;;;;;50.60;47.90;;;;;;;58.51;10.34;99959.05;106491;1272;22529;-61
2023/08/12 11:33:20;;;;;;;47.20;44.60;;;;;;;57.28;10.55;99949.81;106454;1271;99796;-56
2023/08/12 11:35:54;;;;;;;44.50;42.10;;;;;;;56.59;10.40;99951.77;106445;1272;25285;-59
2023/08/12 11:38:23;;;;;;;39.00;36.90;;;;;;;56.22;10.83;99943.33;106508;1272;24336;-60
2023/08/12 11:41:04;;;;;;;33.80;31.90;;;;;;;56.90;11.23;99937.69;106509;1271;99611;-54